CheckWX is a tool to help pilots better visualize weather data.  It is not intended as a substitute for an official pre-flight weather briefing.

08:19:53 UTC

11R METAR
Brenham Municipal Airport
Brenham, Texas, USA
Current

45 mins ago

K11R 060735Z AUTO 00000KT 10SM BKN013 17/17 A3001 RMK AO2 T01730169
Observed
Dec-6 @ 07:35 UTC
Visibility
10 SM
Flight Rules
MVFR
Cloud Levels
  • Broken at 1,300' AGL
Temperature
17°C / 63°F
Dewpoint
17°C / 63°F
Humidity
100%
Altimeter
30.01" Hg
Pressure
1016.22 hPa
Previous

1 hour ago

K11R 060715Z AUTO 19003KT 10SM OVC015 17/17 A3001 RMK AO2 T01730168
Observed
Dec-6 @ 07:15 UTC
Wind
  • 190° at 3 KTS
Visibility
10 SM
Flight Rules
MVFR
Cloud Levels
  • Overcast at 1,500' AGL
Temperature
17°C / 63°F
Dewpoint
17°C / 63°F
Humidity
100%
Altimeter
30.01" Hg
Pressure
1016.22 hPa
Previous

1 hour ago

K11R 060655Z AUTO 20004KT 10SM BKN015 17/16 A3001 RMK AO2 T01690163
Observed
Dec-6 @ 06:55 UTC
Wind
  • 200° at 4 KTS
Visibility
10 SM
Flight Rules
MVFR
Cloud Levels
  • Broken at 1,500' AGL
Temperature
17°C / 63°F
Dewpoint
16°C / 61°F
Humidity
94%
Altimeter
30.01" Hg
Pressure
1016.22 hPa